Disclaimer

Please do not use the information listed here in-flight or in-navigation, as they are not provided to us by the airports but are provided by volunteers, so they might be outdated.

Search


Regions


Airport information page

Radio informations:
Aerodrome flight information system (AFIS) - 118.8 MHz

Airport informations:
Latitude: 61° 56' 35.03" N
Longitude: 028° 56' 42.49" E
Elevation: 311 feet - 95 meters
Operating hours: N/A
Operating agency: Civil government, landing fees and diplomatic clearance may be required
Timezone: UTC+2(+3DT) - Last Sunday in March to last Sunday in October
Fuel: Jet A1, without icing nhibitor.

100/130 MIL Spec, low lead, aviation gasoline (BLUE)

Runway information:
12/30 - 7546 x 148 feet< - >2300 x 45 meters

Recent METARs:
EFSA 171950Z AUTO 30006KT 9999 BKN028 05/01 Q1022
EFSA 172020Z AUTO 30006KT 9999 OVC028 05/01 Q1023
EFSA 172050Z AUTO 31007KT 270V340 9999 OVC027 05/01 Q1023

Airport on the map: